Airfield :







YOU CAN JOIN US ON...

 
LOGIN :

Register | Disclaimer

   EN    FR    IT 

 









Legend :    VFR   Marginal VFR   IFR   Intensive IFR   Very Intensive IFR
Visi :
Ceiling :
>= 8 km
>= 3000ft
5 to 8 km
1000 to 3000 ft
1500m to 5 km
500 to 1000 ft
800 to 1500m
200 to 500 ft
< 800m
< 200 ft
Symbols :   Thunderstorms  Fog  Heavy snow  Heavy precipitations  Wind > 20 kt







- Airport Elevation : 38 ft
- IATA code : YMH


CYMH - Mary's Harbour

CURRENT METAR :
  • 210650Z AUTO VRB02KT 5SM BR OVC004 08/08 A2969 RMK SLP056

EXPIRED METARs :
  • 210642Z AUTO 00000KT 6SM BR OVC004 08/08 A2969 RMK SLP056
  • 210621Z AUTO 00000KT 5SM BR OVC004 08/08 A2969 RMK SLP054
  • 210601Z AUTO VRB02KT 6SM BR OVC004 08/08 A2969 RMK SLP054
  • 210542Z AUTO 00000KT 4SM BR OVC004 08/07 A2968 RMK SLP053
  • 210500Z AUTO 21002KT 4SM BR BKN008 OVC012 08/08 A2969 RMK SLP056
  • 210448Z AUTO 21002KT 5SM BR BKN010 OVC013 08/08 A2970 RMK SLP058
  • 210426Z AUTO 23003KT 200V270 9SM OVC010 08/07 A2971 RMK SLP061
  • 210418Z AUTO 23004KT 9SM BKN007 OVC010 08/07 A2971 RMK SLP061
  • 210410Z AUTO VRB02KT 6SM BR BKN005 OVC010 08/07 A2970 RMK SLP060

Expired Forecast.
CZQX FIR / North America



MET'MAP, your aeronautical weather chart ! - Copyright ORBIFLY December 2007 - Disclaimer

ORBIFLY MET'MAP TEAM :

Programming & Development : Alexandra Zaïnal
Concept & Development : Baudouin d'Aumeries
Co-Development & Prog : Marc-Olivier Méhu
Technical & hardware support : Manuel Goepfert

Contact : metmap@orbifly.com




SOURCES & CREDITS :

   NOAA